createdAt,value
2023-04-11T00:05:23.191Z,215383.00
2023-04-11T00:11:25.922Z,215369.00
2023-04-11T00:17:31.932Z,215349.00
2023-04-11T00:23:34.881Z,215337.00
2023-04-11T00:29:37.457Z,215337.00
2023-04-11T00:35:41.173Z,215329.00
2023-04-11T00:41:43.782Z,215315.00
2023-04-11T00:47:46.334Z,215309.00
2023-04-11T00:53:48.762Z,215273.00
2023-04-11T00:59:51.966Z,215273.00
2023-04-11T01:05:54.900Z,215295.00
2023-04-11T01:11:58.286Z,215295.00
2023-04-11T01:18:02.539Z,215273.00
2023-04-11T01:24:05.602Z,215239.00
2023-04-11T01:30:08.119Z,215225.00
2023-04-11T01:36:10.924Z,215217.00
2023-04-11T01:42:13.575Z,215176.00
2023-04-11T01:48:16.729Z,215146.00
2023-04-11T01:54:21.032Z,215098.00
2023-04-11T02:00:23.602Z,215066.00
2023-04-11T02:06:28.257Z,215016.00
2023-04-11T02:12:30.586Z,214980.00
2023-04-11T02:18:33.199Z,214974.00
2023-04-11T02:24:35.730Z,214966.00
2023-04-11T02:30:38.146Z,214940.00
2023-04-11T02:36:42.042Z,214966.00
2023-04-11T02:42:45.032Z,214980.00
2023-04-11T02:48:47.173Z,214994.00
2023-04-11T02:54:49.644Z,214980.00
2023-04-11T03:00:52.119Z,214980.00
2023-04-11T03:06:54.837Z,214974.00
2023-04-11T03:12:57.374Z,214974.00
2023-04-11T03:18:59.958Z,214988.00
2023-04-11T03:25:02.709Z,215016.00
2023-04-11T03:31:05.886Z,215030.00
2023-04-11T03:37:08.374Z,215044.00
2023-04-11T03:43:12.768Z,215052.00
2023-04-11T03:49:16.189Z,215038.00
2023-04-11T03:55:23.513Z,215058.00
2023-04-11T04:01:26.382Z,215090.00
2023-04-11T04:07:33.814Z,215112.00
2023-04-11T04:13:46.796Z,215176.00
2023-04-11T04:19:53.155Z,215204.00
2023-04-11T04:25:58.581Z,215273.00
2023-04-11T04:32:03.631Z,215309.00
2023-04-11T04:38:18.268Z,215405.00
2023-04-11T04:44:29.890Z,215502.00
2023-04-11T04:50:38.174Z,215554.00
2023-04-11T04:56:41.978Z,215560.00
2023-04-11T05:02:48.444Z,215628.00
2023-04-11T05:08:51.791Z,215642.00
2023-04-11T05:14:55.822Z,215656.00
2023-04-11T05:20:59.448Z,215750.00
2023-04-11T05:27:08.677Z,215866.00
2023-04-11T05:33:13.142Z,215973.00
2023-04-11T05:39:17.397Z,216043.00
2023-04-11T05:45:19.912Z,216183.00
2023-04-11T05:51:22.302Z,216282.00
2023-04-11T05:57:25.753Z,216332.00
2023-04-11T06:03:28.606Z,216339.00
2023-04-11T06:09:33.490Z,216400.00
2023-04-11T06:15:36.444Z,216464.00
2023-04-11T06:21:39.193Z,216529.00
2023-04-11T06:27:41.738Z,216551.00
2023-04-11T06:33:44.180Z,216628.00
2023-04-11T06:39:46.763Z,216691.00
2023-04-11T06:45:50.126Z,216761.00
2023-04-11T06:51:52.479Z,216840.00
2023-04-11T06:57:55.061Z,216840.00
2023-04-11T07:03:57.826Z,216978.00
2023-04-11T07:10:00.799Z,217113.00
2023-04-11T07:16:03.474Z,217189.00
2023-04-11T07:22:05.975Z,217219.00
2023-04-11T07:28:09.004Z,217213.00
2023-04-11T07:34:11.890Z,217263.00
2023-04-11T07:40:14.640Z,217376.00
2023-04-11T07:46:17.669Z,217461.00
2023-04-11T07:52:20.308Z,217554.00
2023-04-11T07:58:22.846Z,217582.00
2023-04-11T08:04:25.647Z,217639.00
2023-04-11T08:10:31.716Z,217510.00
2023-04-11T08:16:35.162Z,217496.00
2023-04-11T08:22:37.643Z,217504.00
2023-04-11T08:28:42.594Z,217538.00
2023-04-11T08:34:45.852Z,217475.00
2023-04-11T08:40:48.884Z,217354.00
2023-04-11T08:46:51.267Z,217291.00
2023-04-11T08:52:54.316Z,217384.00
2023-04-11T08:58:57.273Z,217433.00
2023-04-11T09:05:00.036Z,217574.00
2023-04-11T09:11:02.670Z,217482.00
2023-04-11T09:17:13.995Z,217612.00
2023-04-11T09:23:25.452Z,217653.00
2023-04-11T09:29:48.374Z,217590.00
2023-04-11T09:35:53.443Z,217702.00
2023-04-11T09:41:56.517Z,217661.00
2023-04-11T09:47:59.692Z,217612.00
2023-04-11T09:54:02.895Z,217619.00
2023-04-11T10:00:16.443Z,217619.00
2023-04-11T10:06:32.075Z,217554.00
2023-04-11T10:12:35.642Z,217524.00
2023-04-11T10:18:39.312Z,217554.00
2023-04-11T10:25:02.185Z,217384.00
2023-04-11T10:31:09.179Z,217482.00
2023-04-11T10:37:13.187Z,217461.00
2023-04-11T10:43:22.330Z,217384.00
2023-04-11T10:49:36.180Z,217263.00
2023-04-11T10:55:47.275Z,217170.00
2023-04-11T11:01:56.566Z,217151.00
2023-04-11T11:07:59.337Z,217093.00
2023-04-11T11:14:02.094Z,217000.00
2023-04-11T11:20:10.587Z,216978.00
2023-04-11T11:26:13.247Z,216942.00
2023-04-11T11:32:23.314Z,216942.00
2023-04-11T11:38:28.379Z,216916.00
2023-04-11T11:44:31.876Z,216942.00
2023-04-11T11:50:34.560Z,216956.00
2023-04-11T11:56:40.100Z,216874.00
2023-04-11T12:02:43.755Z,216802.00
2023-04-11T12:08:52.079Z,216703.00
2023-04-11T12:14:55.467Z,216719.00
2023-04-11T12:20:59.222Z,216725.00
2023-04-11T12:27:06.863Z,216669.00
2023-04-11T12:33:10.619Z,216628.00
2023-04-11T12:39:13.248Z,216661.00
2023-04-11T12:45:19.352Z,216613.00
2023-04-11T12:51:21.931Z,216613.00
2023-04-11T12:57:24.635Z,216551.00
2023-04-11T13:03:28.200Z,216472.00
2023-04-11T13:09:32.027Z,216422.00
2023-04-11T13:15:34.800Z,216302.00
2023-04-11T13:21:37.830Z,216260.00
2023-04-11T13:27:41.476Z,216183.00
2023-04-11T13:33:46.535Z,216114.00
2023-04-11T13:39:49.164Z,216056.00
2023-04-11T13:45:51.729Z,216001.00
2023-04-11T13:51:54.631Z,215965.00
2023-04-11T13:57:57.505Z,215909.00
2023-04-11T14:04:00.836Z,215888.00
2023-04-11T14:10:05.266Z,215827.00
2023-04-11T14:16:09.487Z,215799.00
2023-04-11T14:22:12.331Z,215797.00
2023-04-11T14:28:14.899Z,215783.00
2023-04-11T14:34:19.017Z,215756.00
2023-04-11T14:40:21.805Z,215756.00
2023-04-11T14:46:24.247Z,215678.00
2023-04-11T14:52:26.793Z,215568.00
2023-04-11T14:58:29.159Z,215560.00
2023-04-11T15:04:31.874Z,215518.00
2023-04-11T15:10:34.366Z,215441.00
2023-04-11T15:16:36.810Z,215239.00
2023-04-11T15:22:41.404Z,215168.00
2023-04-11T15:28:45.749Z,215084.00
2023-04-11T15:34:51.214Z,215066.00
2023-04-11T15:40:55.292Z,215092.00
2023-04-11T15:46:57.681Z,215140.00
2023-04-11T15:53:00.459Z,215146.00
2023-04-11T15:59:03.035Z,215140.00
2023-04-11T16:05:06.002Z,215112.00
2023-04-11T16:11:08.633Z,215112.00
2023-04-11T16:17:10.871Z,215132.00
2023-04-11T16:23:13.256Z,215176.00
2023-04-11T16:29:15.991Z,215112.00
2023-04-11T16:35:18.720Z,215044.00
2023-04-11T16:41:21.527Z,214974.00
2023-04-11T16:47:26.626Z,214919.00
2023-04-11T16:53:29.209Z,214855.00
2023-04-11T16:59:31.932Z,214841.00
2023-04-11T17:05:38.375Z,214833.00
2023-04-11T17:11:40.944Z,214827.00
2023-04-11T17:17:44.963Z,214833.00
2023-04-11T17:23:47.684Z,214841.00
2023-04-11T17:29:50.713Z,214827.00
2023-04-11T17:35:53.110Z,214793.00
2023-04-11T17:41:57.828Z,214814.00
2023-04-11T17:48:01.745Z,214793.00
2023-04-11T17:54:04.397Z,214800.00
2023-04-11T18:00:19.911Z,214808.00
2023-04-11T18:06:22.725Z,214793.00
2023-04-11T18:12:29.598Z,214779.00
2023-04-11T18:18:32.323Z,214814.00
2023-04-11T18:24:38.055Z,214841.00
2023-04-11T18:30:40.595Z,214833.00
2023-04-11T18:36:43.495Z,214793.00
2023-04-11T18:42:51.881Z,214814.00
2023-04-11T18:48:55.630Z,214833.00
2023-04-11T18:54:58.344Z,214814.00
2023-04-11T19:01:15.659Z,214827.00
2023-04-11T19:07:19.953Z,214849.00
2023-04-11T19:13:22.408Z,214877.00
2023-04-11T19:19:24.986Z,214861.00
2023-04-11T19:25:28.001Z,214875.00
2023-04-11T19:31:33.078Z,214889.00
2023-04-11T19:37:36.755Z,214897.00
2023-04-11T19:43:39.740Z,214897.00
2023-04-11T19:49:43.361Z,214905.00
2023-04-11T19:55:52.270Z,214940.00
2023-04-11T20:01:54.952Z,214966.00
2023-04-11T20:07:57.512Z,214980.00
2023-04-11T20:14:00.359Z,215030.00
2023-04-11T20:20:07.138Z,215016.00
2023-04-11T20:26:09.852Z,215016.00
2023-04-11T20:32:12.921Z,214988.00
2023-04-11T20:38:15.713Z,215016.00
2023-04-11T20:44:19.415Z,215024.00
2023-04-11T20:50:22.021Z,214974.00
2023-04-11T20:56:25.500Z,214966.00
2023-04-11T21:02:28.532Z,214966.00
2023-04-11T21:08:30.930Z,214966.00
2023-04-11T21:14:33.855Z,214966.00
2023-04-11T21:20:36.879Z,214932.00
2023-04-11T21:26:39.391Z,214897.00
2023-04-11T21:32:42.124Z,214875.00
2023-04-11T21:38:44.409Z,214833.00
2023-04-11T21:44:46.841Z,214841.00
2023-04-11T21:50:49.246Z,214861.00
2023-04-11T21:56:52.251Z,214875.00
2023-04-11T22:02:55.026Z,214905.00
2023-04-11T22:08:58.707Z,214932.00
2023-04-11T22:15:01.166Z,214966.00
2023-04-11T22:21:03.603Z,214932.00
2023-04-11T22:27:10.522Z,214875.00
2023-04-11T22:33:16.992Z,214889.00
2023-04-11T22:39:19.456Z,214903.00
2023-04-11T22:45:23.359Z,214897.00
2023-04-11T22:51:30.482Z,214919.00
2023-04-11T22:57:32.643Z,214966.00
2023-04-11T23:03:35.050Z,214966.00
2023-04-11T23:09:37.772Z,214988.00
2023-04-11T23:15:40.371Z,215024.00
2023-04-11T23:21:43.363Z,215024.00
2023-04-11T23:27:46.132Z,214966.00
2023-04-11T23:33:48.615Z,214966.00
2023-04-11T23:39:50.851Z,215010.00
2023-04-11T23:45:55.028Z,215010.00
2023-04-11T23:51:57.472Z,215016.00
2023-04-11T23:57:59.822Z,215030.00
